Time;durP1;ratioP1;P1;durP2;ratioP2;P2;SDS_P1;SDS_P2;PMS_P1;PMS_P2;Temp;Humidity;BMP_temperature;BMP_pressure;BME280_temperature;BME280_humidity;BME280_pressure;Samples;Min_cycle;Max_cycle;Signal;HPM_P1;HPM_P2
2022/07/11 00:02:08;;;;;;;6.95;4.05;;;20.40;99.90;;;;;;5093103;28;20028;-73
2022/07/11 00:04:34;;;;;;;6.78;4.07;;;20.40;99.90;;;;;;5094335;28;20035;-73
2022/07/11 00:07:00;;;;;;;6.88;4.13;;;20.40;99.90;;;;;;5092601;28;20020;-72
2022/07/11 00:09:26;;;;;;;12.13;4.57;;;20.30;99.90;;;;;;5094588;28;20389;-72
2022/07/11 00:11:52;;;;;;;8.85;4.63;;;20.30;99.90;;;;;;5093905;28;20075;-73
2022/07/11 00:14:19;;;;;;;8.00;4.22;;;20.30;99.90;;;;;;5086582;28;20469;-72
2022/07/11 00:16:44;;;;;;;5.32;4.10;;;20.20;99.90;;;;;;5087822;28;20028;-73
2022/07/11 00:19:10;;;;;;;6.88;4.72;;;20.20;99.90;;;;;;5093527;28;20020;-72
2022/07/11 00:21:36;;;;;;;6.80;3.92;;;20.20;99.90;;;;;;5093990;28;20031;-73
2022/07/11 00:24:03;;;;;;;5.68;4.25;;;20.20;99.90;;;;;;5093909;28;20433;-73
2022/07/11 00:26:29;;;;;;;4.38;3.97;;;20.10;99.90;;;;;;5093864;28;20032;-73
2022/07/11 00:28:54;;;;;;;6.18;4.43;;;20.10;99.90;;;;;;5084156;28;20385;-72
2022/07/11 00:31:20;;;;;;;7.20;4.53;;;20.00;99.90;;;;;;5091278;28;20070;-72
2022/07/11 00:33:46;;;;;;;6.03;4.45;;;20.00;99.90;;;;;;5093097;28;20070;-72
2022/07/11 00:36:11;;;;;;;7.40;4.68;;;20.00;99.90;;;;;;5094223;28;20028;-72
2022/07/11 00:38:37;;;;;;;8.27;4.80;;;20.00;99.90;;;;;;5093766;28;20016;-71
2022/07/11 00:41:03;;;;;;;7.28;4.65;;;19.90;99.90;;;;;;5077942;28;20100;-72
2022/07/11 00:43:33;;;;;;;6.18;4.93;;;19.90;99.90;;;;;;5090639;28;20035;-72
2022/07/11 00:46:00;;;;;;;7.18;5.28;;;19.90;99.90;;;;;;5101850;28;20062;-73
2022/07/11 00:48:25;;;;;;;10.13;4.90;;;19.90;99.90;;;;;;5113796;28;20023;-72
2022/07/11 00:50:51;;;;;;;8.15;4.85;;;19.80;99.90;;;;;;5108864;27;20488;-72
2022/07/11 00:53:18;;;;;;;6.60;4.90;;;19.80;99.90;;;;;;5093450;28;20035;-72
2022/07/11 00:55:44;;;;;;;7.75;4.85;;;19.80;99.90;;;;;;5092859;28;20127;-72
2022/07/11 00:58:11;;;;;;;5.78;4.50;;;19.70;99.90;;;;;;5093294;28;20025;-72
2022/07/11 01:00:37;;;;;;;6.82;5.43;;;19.70;99.90;;;;;;5093404;28;20028;-73
2022/07/11 01:03:02;;;;;;;6.57;5.15;;;19.70;99.90;;;;;;5093015;28;20026;-71
2022/07/11 01:05:28;;;;;;;6.30;5.00;;;19.70;99.90;;;;;;5090061;28;20048;-72
2022/07/11 01:07:54;;;;;;;6.78;4.75;;;19.60;99.90;;;;;;5093233;28;20468;-73
2022/07/11 01:10:20;;;;;;;8.25;5.15;;;19.60;99.90;;;;;;5085491;28;20032;-72
2022/07/11 01:12:46;;;;;;;6.55;4.65;;;19.60;99.90;;;;;;5092186;28;20016;-72
2022/07/11 01:15:14;;;;;;;6.82;5.25;;;19.60;99.90;;;;;;5094361;28;20519;-71
2022/07/11 01:17:39;;;;;;;7.38;5.63;;;19.60;99.90;;;;;;5072485;28;20028;-72
2022/07/11 01:20:06;;;;;;;7.28;5.18;;;19.50;99.90;;;;;;5073071;28;20560;-73
2022/07/11 01:22:35;;;;;;;7.82;5.20;;;19.50;99.90;;;;;;5072397;28;20070;-72
2022/07/11 01:25:01;;;;;;;7.82;5.18;;;19.50;99.90;;;;;;5092750;28;20031;-73
2022/07/11 01:27:28;;;;;;;6.10;4.50;;;19.50;99.90;;;;;;5092890;28;20285;-72
2022/07/11 01:29:54;;;;;;;6.50;5.13;;;19.40;99.90;;;;;;5088622;28;20031;-72
2022/07/11 01:32:21;;;;;;;6.60;5.65;;;19.40;99.90;;;;;;5093057;28;20020;-72
2022/07/11 01:34:47;;;;;;;6.45;4.72;;;19.40;99.90;;;;;;5091975;28;20036;-70
2022/07/11 01:37:13;;;;;;;9.90;5.30;;;19.30;99.90;;;;;;5092136;28;20024;-72
2022/07/11 01:39:38;;;;;;;7.63;5.30;;;19.30;99.90;;;;;;5093038;28;20080;-72
2022/07/11 01:42:05;;;;;;;7.00;5.32;;;19.30;99.90;;;;;;5092796;28;20083;-72
2022/07/11 01:44:30;;;;;;;5.93;5.00;;;19.20;99.90;;;;;;5093059;28;20407;-72
2022/07/11 01:46:56;;;;;;;7.53;5.47;;;19.10;99.90;;;;;;5092792;28;20110;-72
2022/07/11 01:49:22;;;;;;;7.40;5.70;;;19.10;99.90;;;;;;5093000;28;20039;-72
2022/07/11 01:51:49;;;;;;;5.53;5.03;;;19.10;99.90;;;;;;5093065;28;20055;-72
2022/07/11 01:54:15;;;;;;;9.07;5.22;;;19.10;99.90;;;;;;5092677;28;20098;-72
2022/07/11 01:56:40;;;;;;;6.68;5.18;;;19.10;99.90;;;;;;5088395;28;20115;-72
2022/07/11 01:59:06;;;;;;;8.57;5.50;;;19.00;99.90;;;;;;5092886;28;20108;-72
2022/07/11 02:01:32;;;;;;;6.57;5.38;;;19.00;99.90;;;;;;5089674;28;20028;-72
2022/07/11 02:03:58;;;;;;;9.15;6.03;;;19.00;99.90;;;;;;5092828;28;20024;-71
2022/07/11 02:06:24;;;;;;;8.13;5.45;;;19.00;99.90;;;;;;5093047;28;20520;-72
2022/07/11 02:08:50;;;;;;;6.90;6.20;;;19.00;99.90;;;;;;5092843;28;20252;-72
2022/07/11 02:11:16;;;;;;;7.57;5.93;;;19.00;99.90;;;;;;5092732;28;20551;-72
2022/07/11 02:13:41;;;;;;;7.18;6.05;;;19.00;99.90;;;;;;5092672;28;20028;-72
2022/07/11 02:16:07;;;;;;;10.38;6.78;;;18.90;99.90;;;;;;5095471;28;20472;-72
2022/07/11 02:18:35;;;;;;;7.22;6.53;;;18.90;99.90;;;;;;5094086;28;20459;-72
2022/07/11 02:21:02;;;;;;;10.80;6.38;;;18.80;99.90;;;;;;5096432;28;20099;-72
2022/07/11 02:23:28;;;;;;;8.35;6.38;;;18.90;99.90;;;;;;5096497;28;20507;-72
2022/07/11 02:25:54;;;;;;;10.23;6.45;;;18.90;99.90;;;;;;5079368;28;20351;-72
2022/07/11 02:28:19;;;;;;;10.55;6.70;;;18.80;99.90;;;;;;5076279;28;20021;-72
2022/07/11 02:30:45;;;;;;;9.07;6.97;;;18.80;99.90;;;;;;5079864;28;20469;-72
2022/07/11 02:33:15;;;;;;;8.25;6.50;;;18.70;99.90;;;;;;5095689;28;20536;-72
2022/07/11 02:35:45;;;;;;;11.52;6.45;;;18.70;99.90;;;;;;5095098;28;20035;-72
2022/07/11 02:38:11;;;;;;;10.02;6.10;;;18.70;99.90;;;;;;5096105;28;20373;-72
2022/07/11 02:40:37;;;;;;;12.07;7.00;;;18.60;99.90;;;;;;5095924;28;20031;-72
2022/07/11 02:43:03;;;;;;;8.30;7.10;;;18.60;99.90;;;;;;5095726;28;20440;-72
2022/07/11 02:45:29;;;;;;;6.95;6.15;;;18.60;99.90;;;;;;5095752;28;20055;-71
2022/07/11 02:47:55;;;;;;;7.07;6.20;;;18.60;99.90;;;;;;5094883;28;20016;-71
2022/07/11 02:50:20;;;;;;;7.13;6.13;;;18.60;99.90;;;;;;5089948;28;20025;-71
2022/07/11 02:52:46;;;;;;;7.53;6.00;;;18.50;99.90;;;;;;5091782;28;20050;-71
2022/07/11 02:55:13;;;;;;;8.70;6.57;;;18.50;99.90;;;;;;5095530;28;20048;-71
2022/07/11 02:57:39;;;;;;;11.15;7.40;;;18.50;99.90;;;;;;5093227;28;20120;-72
2022/07/11 03:00:08;;;;;;;9.48;6.25;;;18.50;99.90;;;;;;5095887;28;20545;-72
2022/07/11 03:02:33;;;;;;;7.32;6.60;;;18.40;99.90;;;;;;5096275;28;20167;-70
2022/07/11 03:04:59;;;;;;;9.52;7.45;;;18.40;99.90;;;;;;5095665;28;20126;-72
2022/07/11 03:07:28;;;;;;;9.02;7.43;;;18.40;99.90;;;;;;5095833;28;20377;-72
2022/07/11 03:09:54;;;;;;;14.30;8.50;;;18.30;99.90;;;;;;5095535;28;20071;-70
2022/07/11 03:12:20;;;;;;;12.02;7.88;;;18.40;99.90;;;;;;5095136;28;20022;-71
2022/07/11 03:14:46;;;;;;;9.57;7.57;;;18.30;99.90;;;;;;5095304;28;20024;-72
2022/07/11 03:17:11;;;;;;;9.60;8.48;;;18.30;99.90;;;;;;5095438;28;20028;-72
2022/07/11 03:19:37;;;;;;;13.20;8.90;;;18.30;99.90;;;;;;5094386;28;20020;-71
2022/07/11 03:22:04;;;;;;;9.55;8.30;;;18.30;99.90;;;;;;5095116;28;20032;-72
2022/07/11 03:24:30;;;;;;;11.52;8.75;;;18.20;99.90;;;;;;5078197;28;20048;-71
2022/07/11 03:26:55;;;;;;;13.07;8.98;;;18.20;99.90;;;;;;5090372;28;20075;-71
2022/07/11 03:29:21;;;;;;;12.43;9.70;;;18.20;99.90;;;;;;5075097;28;20436;-71
2022/07/11 03:31:47;;;;;;;11.40;8.70;;;18.20;99.90;;;;;;5093630;28;20028;-71
2022/07/11 03:34:13;;;;;;;9.57;8.57;;;18.10;99.90;;;;;;5079794;28;20032;-71
2022/07/11 03:36:38;;;;;;;15.63;10.70;;;18.10;99.90;;;;;;5074779;28;20035;-71
2022/07/11 03:39:04;;;;;;;12.55;8.45;;;18.10;99.90;;;;;;5082422;28;20114;-71
2022/07/11 03:41:30;;;;;;;11.35;9.20;;;18.10;99.90;;;;;;5093247;28;20028;-71
2022/07/11 03:43:56;;;;;;;12.20;10.88;;;18.10;99.90;;;;;;5095066;28;20039;-71
2022/07/11 03:46:23;;;;;;;13.27;9.70;;;18.10;99.90;;;;;;5094815;28;20368;-71
2022/07/11 03:48:48;;;;;;;12.00;9.18;;;18.10;99.90;;;;;;5094998;28;20402;-71
2022/07/11 03:51:16;;;;;;;12.68;9.80;;;18.10;99.90;;;;;;5094462;28;20099;-71
2022/07/11 03:53:42;;;;;;;16.98;10.32;;;18.10;99.90;;;;;;5094988;28;20024;-71
2022/07/11 03:56:08;;;;;;;13.35;10.82;;;18.00;99.90;;;;;;5094258;28;20040;-71
2022/07/11 03:58:33;;;;;;;17.95;11.48;;;18.00;99.90;;;;;;5093565;28;20028;-70
2022/07/11 04:00:59;;;;;;;17.27;10.60;;;18.00;99.90;;;;;;5082565;28;20032;-71
2022/07/11 04:03:25;;;;;;;14.38;9.38;;;18.00;99.90;;;;;;5093555;28;20020;-71
2022/07/11 04:05:51;;;;;;;12.30;9.68;;;18.10;99.90;;;;;;5092978;28;20036;-71
2022/07/11 04:08:17;;;;;;;14.60;9.40;;;18.00;99.90;;;;;;5094206;28;20012;-71
2022/07/11 04:10:42;;;;;;;14.88;9.05;;;18.00;99.90;;;;;;5094059;28;20020;-71
2022/07/11 04:13:08;;;;;;;15.90;9.88;;;18.00;99.90;;;;;;5093664;28;20055;-71
2022/07/11 04:15:34;;;;;;;15.77;9.80;;;18.10;99.90;;;;;;5094265;28;20469;-71
2022/07/11 04:17:59;;;;;;;15.75;10.45;;;18.10;99.90;;;;;;5094197;28;20028;-69
2022/07/11 04:20:25;;;;;;;15.70;10.52;;;18.10;99.90;;;;;;5094955;28;20487;-71
2022/07/11 04:22:51;;;;;;;15.88;10.60;;;18.20;99.90;;;;;;5094026;28;20028;-71
2022/07/11 04:25:16;;;;;;;17.75;9.50;;;18.20;99.90;;;;;;5078622;28;20028;-71
2022/07/11 04:27:42;;;;;;;17.63;11.07;;;18.20;99.90;;;;;;5073282;28;20031;-71
2022/07/11 04:30:08;;;;;;;16.70;10.35;;;18.20;99.90;;;;;;5073953;28;20052;-71
2022/07/11 04:32:35;;;;;;;18.35;12.15;;;18.30;99.90;;;;;;5073047;28;20466;-71
2022/07/11 04:35:01;;;;;;;12.30;10.38;;;18.30;99.90;;;;;;5073650;28;20032;-70
2022/07/11 04:37:27;;;;;;;16.15;11.98;;;18.20;99.90;;;;;;5073794;28;20036;-71
2022/07/11 04:39:52;;;;;;;24.27;12.70;;;18.30;99.90;;;;;;5082883;28;20024;-71
2022/07/11 04:42:18;;;;;;;17.73;11.95;;;18.20;99.90;;;;;;5092103;28;20024;-71
2022/07/11 04:44:44;;;;;;;19.67;13.20;;;18.20;99.90;;;;;;5093417;28;20032;-71
2022/07/11 04:47:10;;;;;;;15.05;10.68;;;18.20;99.90;;;;;;5093319;28;20028;-71
2022/07/11 04:49:36;;;;;;;17.83;10.52;;;18.20;99.90;;;;;;5092416;28;20020;-71
2022/07/11 04:52:02;;;;;;;17.42;11.98;;;18.30;99.90;;;;;;5093640;28;20031;-71
2022/07/11 04:54:27;;;;;;;22.00;12.32;;;18.40;99.90;;;;;;5093134;28;20040;-72
2022/07/11 04:56:53;;;;;;;21.13;14.35;;;18.40;99.90;;;;;;5093940;28;20050;-71
2022/07/11 04:59:18;;;;;;;20.60;14.43;;;18.40;99.90;;;;;;5093080;28;20012;-71
2022/07/11 05:01:44;;;;;;;19.63;14.65;;;18.50;99.90;;;;;;5093541;28;20028;-68
2022/07/11 05:04:10;;;;;;;24.02;15.55;;;18.50;99.90;;;;;;5093309;28;20065;-71
2022/07/11 05:06:36;;;;;;;18.38;14.02;;;18.50;99.90;;;;;;5093370;28;20031;-71
2022/07/11 05:09:03;;;;;;;20.05;13.73;;;18.40;99.90;;;;;;5093350;28;20103;-71
2022/07/11 05:11:29;;;;;;;19.60;13.93;;;18.40;99.90;;;;;;5093494;28;20027;-71
2022/07/11 05:13:55;;;;;;;17.48;13.82;;;18.60;99.90;;;;;;5092674;28;20016;-72
2022/07/11 05:16:20;;;;;;;19.23;13.50;;;18.60;99.90;;;;;;5093260;28;20036;-71
2022/07/11 05:18:46;;;;;;;20.70;14.63;;;18.60;99.90;;;;;;5092909;28;20408;-71
2022/07/11 05:21:11;;;;;;;18.50;13.15;;;18.70;99.90;;;;;;5093269;28;20028;-71
2022/07/11 05:23:37;;;;;;;15.82;12.93;;;18.60;99.90;;;;;;5092787;28;20031;-70
2022/07/11 05:26:04;;;;;;;18.13;12.07;;;18.80;99.90;;;;;;5093349;28;20536;-71
2022/07/11 05:28:30;;;;;;;19.83;12.48;;;18.80;99.90;;;;;;5093082;28;20081;-71
2022/07/11 05:30:55;;;;;;;18.70;13.30;;;18.80;99.90;;;;;;5093118;28;20016;-72
2022/07/11 05:33:21;;;;;;;18.35;12.23;;;18.80;99.90;;;;;;5092855;28;20042;-72
2022/07/11 05:35:46;;;;;;;21.45;14.20;;;18.80;99.90;;;;;;5091107;28;20028;-72
2022/07/11 05:38:12;;;;;;;19.73;13.00;;;18.90;99.90;;;;;;5092863;28;20047;-72
2022/07/11 05:40:38;;;;;;;22.08;12.80;;;19.00;99.90;;;;;;5125687;28;20026;-72
2022/07/11 05:43:04;;;;;;;19.40;12.10;;;19.00;99.90;;;;;;5091879;28;20028;-72
2022/07/11 05:45:29;;;;;;;20.02;11.77;;;19.00;99.90;;;;;;5092382;28;20032;-71
2022/07/11 05:47:55;;;;;;;16.73;12.02;;;19.10;99.90;;;;;;5092823;28;20066;-71
2022/07/11 05:50:21;;;;;;;15.25;11.02;;;19.00;99.90;;;;;;5088285;28;20028;-72
2022/07/11 05:52:46;;;;;;;17.27;11.50;;;19.00;99.90;;;;;;5093761;28;20024;-72
2022/07/11 05:55:12;;;;;;;15.77;11.20;;;19.10;99.90;;;;;;5096761;28;20035;-72
2022/07/11 05:57:37;;;;;;;16.20;11.65;;;19.10;99.90;;;;;;5089097;28;20414;-70
2022/07/11 06:00:03;;;;;;;14.50;10.55;;;19.10;99.90;;;;;;5094628;28;20062;-71
2022/07/11 06:02:29;;;;;;;14.35;10.52;;;19.20;99.90;;;;;;5094489;28;20024;-71
2022/07/11 06:04:54;;;;;;;14.55;9.80;;;19.20;99.90;;;;;;5096132;28;20024;-71
2022/07/11 06:10:05;;;;;;;10.98;9.38;;;19.30;99.90;;;;;;5096089;28;20034;-71
2022/07/11 06:12:31;;;;;;;12.68;9.90;;;19.30;99.90;;;;;;5095314;28;20403;-71
2022/07/11 06:14:57;;;;;;;13.52;9.85;;;19.40;99.90;;;;;;5095913;28;20046;-72
2022/07/11 06:17:22;;;;;;;14.50;9.85;;;19.40;99.90;;;;;;5095187;28;20094;-72
2022/07/11 06:19:48;;;;;;;13.70;8.85;;;19.50;99.90;;;;;;5095972;28;20024;-72
2022/07/11 06:22:14;;;;;;;12.48;9.63;;;19.40;99.90;;;;;;5095907;28;20027;-72
2022/07/11 06:24:40;;;;;;;15.25;9.43;;;19.50;99.90;;;;;;5096401;28;20028;-71
2022/07/11 06:27:05;;;;;;;14.27;9.60;;;19.50;99.90;;;;;;5096625;28;20512;-72
2022/07/11 06:29:31;;;;;;;15.07;8.48;;;19.50;99.90;;;;;;5096244;28;20508;-72
2022/07/11 06:31:56;;;;;;;13.55;9.13;;;19.60;99.90;;;;;;5094959;28;20034;-72
2022/07/11 06:34:22;;;;;;;15.15;8.90;;;19.60;99.90;;;;;;5096228;28;20025;-72
2022/07/11 06:36:48;;;;;;;15.00;10.15;;;19.70;99.90;;;;;;5096267;28;20093;-72
2022/07/11 06:39:13;;;;;;;12.98;8.38;;;19.70;99.90;;;;;;5095881;28;20435;-72
2022/07/11 06:41:39;;;;;;;13.25;7.80;;;19.80;99.90;;;;;;5095920;28;20045;-72
2022/07/11 06:44:04;;;;;;;9.52;7.95;;;19.70;99.90;;;;;;5095868;28;20035;-72
2022/07/11 06:46:30;;;;;;;13.82;7.68;;;19.70;99.90;;;;;;5096161;28;20020;-71
2022/07/11 06:48:56;;;;;;;12.15;7.53;;;19.80;99.90;;;;;;5096147;28;20028;-72
2022/07/11 06:51:22;;;;;;;13.20;6.85;;;19.80;99.90;;;;;;5083379;28;20036;-72
2022/07/11 06:53:47;;;;;;;11.23;6.85;;;19.80;99.90;;;;;;5078963;28;20032;-72
2022/07/11 06:56:13;;;;;;;12.43;6.68;;;19.80;99.90;;;;;;5094569;28;20096;-71
2022/07/11 06:58:39;;;;;;;10.68;7.32;;;19.70;99.90;;;;;;5094864;28;20028;-72
2022/07/11 07:01:06;;;;;;;11.43;7.68;;;19.70;99.90;;;;;;5094689;28;20445;-72
2022/07/11 07:03:33;;;;;;;9.80;6.57;;;19.80;99.90;;;;;;5094105;28;20491;-72
2022/07/11 07:05:59;;;;;;;8.63;7.18;;;19.80;99.90;;;;;;5094362;28;20027;-72
2022/07/11 07:08:26;;;;;;;12.70;7.25;;;19.70;99.90;;;;;;5087857;28;20032;-71
2022/07/11 07:10:52;;;;;;;11.45;5.80;;;19.80;99.90;;;;;;5082373;28;20111;-72
2022/07/11 07:13:20;;;;;;;6.43;3.90;;;19.80;99.90;;;;;;5093431;28;20020;-72
2022/07/11 07:15:46;;;;;;;9.23;4.22;;;19.80;99.90;;;;;;5094394;28;20119;-72
2022/07/11 07:18:12;;;;;;;6.60;3.60;;;19.80;99.90;;;;;;5094057;28;20119;-73
2022/07/11 07:20:38;;;;;;;8.80;4.00;;;19.90;99.90;;;;;;5093747;28;20028;-72
2022/07/11 07:23:03;;;;;;;4.47;3.15;;;19.80;99.90;;;;;;5094380;28;20026;-72
2022/07/11 07:25:29;;;;;;;5.05;3.33;;;19.90;99.90;;;;;;5094573;28;20040;-71
2022/07/11 07:27:55;;;;;;;8.73;3.30;;;19.80;99.90;;;;;;5094865;28;20020;-71
2022/07/11 07:30:21;;;;;;;9.98;3.50;;;19.90;99.90;;;;;;5094316;28;20028;-71
2022/07/11 07:32:46;;;;;;;7.10;3.42;;;19.90;99.90;;;;;;5093772;28;20479;-72
2022/07/11 07:35:12;;;;;;;4.30;3.05;;;19.90;99.90;;;;;;5093587;28;20032;-72
2022/07/11 07:37:37;;;;;;;5.53;3.30;;;19.90;99.90;;;;;;5092529;28;20468;-72
2022/07/11 07:40:03;;;;;;;10.15;3.75;;;20.00;99.90;;;;;;5094113;28;20032;-72
2022/07/11 07:42:29;;;;;;;5.57;2.80;;;20.00;99.90;;;;;;5093657;28;20441;-72
2022/07/11 07:44:55;;;;;;;5.80;3.50;;;20.00;99.90;;;;;;5091265;28;20503;-72
2022/07/11 07:47:20;;;;;;;6.70;3.60;;;19.90;99.90;;;;;;5093819;28;20150;-72
2022/07/11 07:49:46;;;;;;;7.85;3.95;;;19.90;99.90;;;;;;5093532;28;20020;-70
2022/07/11 07:52:12;;;;;;;6.38;3.40;;;20.00;99.90;;;;;;5093410;28;20035;-72
2022/07/11 07:54:37;;;;;;;6.22;3.88;;;20.00;99.90;;;;;;5050967;28;1182939;-72
2022/07/11 07:57:03;;;;;;;4.55;4.15;;;20.00;99.90;;;;;;5094694;28;20490;-71
2022/07/11 07:59:29;;;;;;;7.88;3.80;;;20.00;99.90;;;;;;5095069;28;20579;-72
2022/07/11 08:01:55;;;;;;;4.28;3.72;;;20.00;99.90;;;;;;5090597;28;20027;-72
2022/07/11 08:04:20;;;;;;;6.50;4.85;;;20.10;99.90;;;;;;5082076;28;20024;-72
2022/07/11 08:06:46;;;;;;;6.35;4.78;;;20.10;99.90;;;;;;5086369;28;20020;-72
2022/07/11 08:09:12;;;;;;;7.28;4.43;;;20.20;99.90;;;;;;5084217;28;20031;-72
2022/07/11 08:11:38;;;;;;;6.35;4.32;;;20.10;99.90;;;;;;5087887;28;20476;-72
2022/07/11 08:14:04;;;;;;;5.15;3.80;;;20.10;99.90;;;;;;5081764;28;20035;-71
2022/07/11 08:16:31;;;;;;;7.97;3.97;;;20.10;99.90;;;;;;5079868;28;20040;-71
2022/07/11 08:19:03;;;;;;;8.57;5.00;;;20.10;99.90;;;;;;5085771;28;20016;-72
2022/07/11 08:21:29;;;;;;;8.30;3.93;;;20.00;99.90;;;;;;5089576;28;20396;-72
2022/07/11 08:23:56;;;;;;;8.45;4.28;;;20.10;99.90;;;;;;5080931;28;20326;-71
2022/07/11 08:26:22;;;;;;;6.78;3.45;;;20.10;99.90;;;;;;5081559;28;20077;-71
2022/07/11 08:28:47;;;;;;;6.20;3.13;;;20.10;99.90;;;;;;5078007;28;20033;-72
2022/07/11 08:31:13;;;;;;;5.38;3.50;;;20.10;99.90;;;;;;5084380;28;20384;-72
2022/07/11 08:33:39;;;;;;;5.57;3.60;;;20.10;99.90;;;;;;5087052;28;20032;-70
2022/07/11 08:36:06;;;;;;;7.57;4.10;;;20.20;99.90;;;;;;5082580;28;20070;-71
2022/07/11 08:38:32;;;;;;;7.70;4.43;;;20.10;99.90;;;;;;5083545;28;20474;-71
2022/07/11 08:40:57;;;;;;;6.80;4.65;;;20.10;99.90;;;;;;5085996;28;20110;-72
2022/07/11 08:43:28;;;;;;;6.70;4.45;;;20.20;99.90;;;;;;5078872;28;20039;-70
2022/07/11 08:45:54;;;;;;;7.63;4.60;;;20.20;99.90;;;;;;5084847;28;20583;-71
2022/07/11 08:48:22;;;;;;;6.28;4.68;;;20.20;99.90;;;;;;5085729;28;20021;-73
2022/07/11 08:50:49;;;;;;;5.55;5.00;;;20.10;99.90;;;;;;5083265;28;20065;-71
2022/07/11 08:53:15;;;;;;;8.23;5.47;;;20.20;99.90;;;;;;5084890;28;20039;-72
2022/07/11 08:55:41;;;;;;;8.27;5.78;;;20.20;99.90;;;;;;5082428;28;20028;-72
2022/07/11 08:58:08;;;;;;;7.13;5.50;;;20.30;99.90;;;;;;5085878;28;20031;-72
2022/07/11 09:00:33;;;;;;;9.60;5.22;;;20.20;99.90;;;;;;5084275;28;20151;-72
2022/07/11 09:03:01;;;;;;;7.95;5.65;;;20.20;99.90;;;;;;5085334;28;20656;-71
2022/07/11 09:05:28;;;;;;;7.93;6.80;;;20.30;99.90;;;;;;5084260;28;20020;-72
2022/07/11 09:07:54;;;;;;;9.73;6.88;;;20.30;99.90;;;;;;5087128;28;20488;-72
2022/07/11 09:10:20;;;;;;;7.05;6.18;;;20.20;99.90;;;;;;5085298;28;20590;-71
2022/07/11 09:13:08;;;;;;;10.35;7.60;;;20.10;99.90;;;;;;5084088;28;20114;-72
2022/07/11 09:15:45;;;;;;;11.57;7.85;;;20.20;99.90;;;;;;5080761;28;20028;-72
2022/07/11 09:18:28;;;;;;;13.40;7.18;;;20.20;99.90;;;;;;5085715;28;20017;-72
2022/07/11 09:26:41;;;;;;;12.57;7.28;;;20.30;99.90;;;;;;5079947;28;20075;-72
2022/07/11 09:29:10;;;;;;;9.40;7.50;;;20.30;99.90;;;;;;5079448;28;20016;-71
2022/07/11 09:31:37;;;;;;;9.13;7.93;;;20.30;99.90;;;;;;5083570;28;20012;-73
2022/07/11 09:34:11;;;;;;;9.40;8.27;;;20.50;99.90;;;;;;5078544;28;20094;-72
2022/07/11 09:36:57;;;;;;;9.73;7.70;;;20.40;99.90;;;;;;5080363;28;20090;-72
2022/07/11 09:39:24;;;;;;;9.95;8.20;;;20.40;99.90;;;;;;5082267;28;20024;-72
2022/07/11 09:41:54;;;;;;;11.20;7.97;;;20.40;99.90;;;;;;5084323;28;20032;-72
2022/07/11 09:44:21;;;;;;;10.07;8.18;;;20.50;99.90;;;;;;5093156;28;20039;-72
2022/07/11 09:46:51;;;;;;;9.38;7.72;;;20.50;99.90;;;;;;5093467;28;20080;-72
2022/07/11 09:49:35;;;;;;;9.43;7.57;;;20.70;99.90;;;;;;5079768;28;20024;-72
2022/07/11 09:52:14;;;;;;;9.95;8.00;;;20.90;99.90;;;;;;5085400;28;20028;-73
2022/07/11 09:55:02;;;;;;;11.40;8.30;;;21.10;99.90;;;;;;5079814;28;20029;-73
2022/07/11 09:57:32;;;;;;;10.40;6.63;;;21.40;99.90;;;;;;5086262;28;20025;-74
2022/07/11 09:59:59;;;;;;;7.55;6.25;;;21.40;99.90;;;;;;5082803;28;20434;-74
2022/07/11 10:02:25;;;;;;;7.72;5.47;;;21.50;99.90;;;;;;5079237;28;20024;-73
2022/07/11 10:04:52;;;;;;;6.78;5.75;;;21.60;99.90;;;;;;5083465;28;20020;-73
2022/07/11 10:07:18;;;;;;;13.73;6.18;;;21.70;99.90;;;;;;5086377;28;20024;-74
2022/07/11 10:09:44;;;;;;;6.13;5.53;;;21.90;99.90;;;;;;5087665;28;20021;-74
2022/07/11 10:12:10;;;;;;;491.52;63.65;;;22.00;99.90;;;;;;5078938;28;20114;-73
2022/07/11 10:14:39;;;;;;;483.20;63.90;;;22.00;99.90;;;;;;5081621;28;20024;-74
2022/07/11 10:17:30;;;;;;;53.78;12.13;;;21.90;99.90;;;;;;5086643;28;20020;-74
2022/07/11 10:20:32;;;;;;;26.27;7.43;;;21.90;99.90;;;;;;5083684;28;20055;-74
2022/07/11 10:23:17;;;;;;;13.25;5.95;;;22.00;99.90;;;;;;5079198;28;20065;-74
2022/07/11 10:25:51;;;;;;;9.95;5.60;;;22.00;99.90;;;;;;5086155;28;20024;-74
2022/07/11 10:28:39;;;;;;;6.97;6.32;;;22.10;99.90;;;;;;5084233;28;20051;-73
2022/07/11 10:31:21;;;;;;;8.20;5.28;;;22.10;99.90;;;;;;5077424;28;20031;-71
2022/07/11 10:34:15;;;;;;;7.75;5.70;;;22.10;99.90;;;;;;5082957;28;20030;-73
2022/07/11 10:36:41;;;;;;;5.78;5.18;;;22.20;99.90;;;;;;5087194;28;20108;-73
2022/07/11 10:39:27;;;;;;;6.82;5.38;;;22.30;99.90;;;;;;5086822;28;20373;-73
2022/07/11 10:41:57;;;;;;;8.02;5.10;;;22.40;99.90;;;;;;5088173;28;20452;-73
2022/07/11 10:44:24;;;;;;;6.00;5.40;;;22.50;99.90;;;;;;5083896;28;20029;-72
2022/07/11 10:46:50;;;;;;;6.00;4.72;;;22.50;99.90;;;;;;5084106;28;20028;-73
2022/07/11 10:49:48;;;;;;;4.97;3.80;;;22.60;99.90;;;;;;5084820;28;20503;-73
2022/07/11 10:52:23;;;;;;;3.97;3.67;;;22.50;99.90;;;;;;5087556;28;20112;-73
2022/07/11 10:55:24;;;;;;;5.07;3.65;;;22.60;99.90;;;;;;5085966;28;20029;-73
2022/07/11 10:58:19;;;;;;;4.05;3.65;;;22.60;99.90;;;;;;5050446;28;20059;-73
2022/07/11 11:00:44;;;;;;;6.63;4.65;;;22.70;99.90;;;;;;5086704;28;20036;-74
2022/07/11 11:03:11;;;;;;;5.22;4.72;;;22.80;99.90;;;;;;5090938;28;20020;-73
2022/07/11 11:05:48;;;;;;;5.75;5.15;;;22.90;99.90;;;;;;5082173;28;20025;-74
2022/07/11 11:08:32;;;;;;;7.85;5.18;;;22.90;99.90;;;;;;5088082;28;20408;-73
2022/07/11 11:11:18;;;;;;;5.70;4.93;;;22.70;99.90;;;;;;5087057;28;20365;-73
2022/07/11 11:13:44;;;;;;;5.80;5.28;;;22.80;99.90;;;;;;5074067;28;20044;-73
2022/07/11 11:16:22;;;;;;;7.07;5.03;;;22.50;99.90;;;;;;5078504;28;20519;-73
2022/07/11 11:18:48;;;;;;;7.22;4.50;;;22.70;99.90;;;;;;5087006;28;20051;-73
2022/07/11 11:21:21;;;;;;;4.70;4.30;;;22.80;99.90;;;;;;5085194;28;20020;-73
2022/07/11 11:23:59;;;;;;;4.43;4.03;;;22.70;99.90;;;;;;5088446;28;20026;-73
2022/07/11 11:26:51;;;;;;;5.45;4.65;;;22.80;99.90;;;;;;5089111;28;20111;-72
2022/07/11 11:29:35;;;;;;;7.97;5.10;;;22.80;99.90;;;;;;5075052;28;20051;-73
2022/07/11 11:32:01;;;;;;;4.63;4.22;;;22.80;99.90;;;;;;5074854;28;20028;-73
2022/07/11 11:34:27;;;;;;;6.10;5.35;;;22.80;99.90;;;;;;5080839;28;20032;-73
2022/07/11 11:36:57;;;;;;;5.22;4.72;;;22.80;99.90;;;;;;5088595;28;20020;-73
2022/07/11 11:39:32;;;;;;;6.15;4.90;;;22.70;99.90;;;;;;5077379;28;20021;-73
2022/07/11 11:42:05;;;;;;;7.50;4.68;;;22.70;99.90;;;;;;5094698;28;20061;-73
2022/07/11 11:44:32;;;;;;;5.55;5.05;;;22.60;99.90;;;;;;5094128;28;20036;-73
2022/07/11 11:46:58;;;;;;;7.18;6.00;;;22.60;99.90;;;;;;5094806;28;20103;-73
2022/07/11 11:49:23;;;;;;;7.00;6.30;;;22.60;99.90;;;;;;5094213;28;20107;-73
2022/07/11 11:51:49;;;;;;;8.68;7.03;;;22.60;99.90;;;;;;5093445;28;20561;-73
2022/07/11 11:54:23;;;;;;;7.35;5.93;;;22.60;99.90;;;;;;5091340;28;20016;-74
2022/07/11 11:56:49;;;;;;;9.60;6.97;;;22.70;99.90;;;;;;5093300;28;20032;-73
2022/07/11 11:59:15;;;;;;;7.60;6.88;;;22.80;99.90;;;;;;5095232;28;20020;-74
2022/07/11 12:01:44;;;;;;;7.35;6.43;;;22.70;99.90;;;;;;5100580;28;20020;-74
2022/07/11 12:04:17;;;;;;;8.63;6.22;;;22.70;99.90;;;;;;5092205;28;20043;-75
2022/07/11 12:06:49;;;;;;;9.65;7.15;;;22.70;99.90;;;;;;5093675;28;20028;-75
2022/07/11 12:14:54;;;;;;;5.40;4.90;;;22.70;99.90;;;;;;5093793;28;20073;-75
2022/07/11 12:17:29;;;;;;;5.15;4.70;;;22.70;99.90;;;;;;5093483;28;20031;-75
2022/07/11 12:19:55;;;;;;;4.15;3.75;;;22.60;99.90;;;;;;5094282;28;20048;-74
2022/07/11 12:22:21;;;;;;;5.65;4.07;;;22.70;99.90;;;;;;5093664;28;20060;-75
2022/07/11 12:24:51;;;;;;;7.03;4.57;;;22.70;99.90;;;;;;5089081;28;20047;-73
2022/07/11 12:27:21;;;;;;;5.07;4.47;;;22.90;99.90;;;;;;5093433;28;20052;-75
2022/07/11 12:29:51;;;;;;;8.30;4.03;;;22.90;99.90;;;;;;5092271;28;20034;-73
2022/07/11 12:32:18;;;;;;;4.80;3.47;;;22.80;99.90;;;;;;5093481;28;20044;-74
2022/07/11 12:34:45;;;;;;;4.90;3.90;;;22.90;99.90;;;;;;5093844;28;20028;-75
2022/07/11 12:37:21;;;;;;;7.13;5.38;;;23.00;99.90;;;;;;5093097;28;20028;-75
2022/07/11 12:39:52;;;;;;;8.38;5.28;;;22.90;99.90;;;;;;5092732;28;20024;-75
2022/07/11 12:42:28;;;;;;;4.60;4.03;;;23.20;99.90;;;;;;5093377;28;20369;-74
2022/07/11 12:45:15;;;;;;;7.03;5.00;;;23.50;99.90;;;;;;5093115;28;20111;-75
2022/07/11 12:47:52;;;;;;;5.22;4.82;;;23.70;99.90;;;;;;5072852;28;20146;-75
2022/07/11 12:50:26;;;;;;;8.25;4.47;;;23.70;99.90;;;;;;5083948;28;20024;-74
2022/07/11 12:52:56;;;;;;;6.38;5.50;;;23.70;99.90;;;;;;5074710;28;20032;-74
2022/07/11 12:55:28;;;;;;;5.57;5.07;;;23.80;99.90;;;;;;5086356;28;20040;-75
2022/07/11 12:58:02;;;;;;;6.83;5.23;;;23.90;99.90;;;;;;5092678;28;20068;-75
2022/07/11 13:00:29;;;;;;;7.63;4.35;;;24.00;99.90;;;;;;5093486;28;20406;-75